Meteo Giornale » Osservazioni meteo Messico » Aguascalientes Ags
ore: 18:40 - Osservazioni Meteo Aguascalientes Ags
Lat. 21° 53' N Lon. 102° 18' W Alt. 1874 metri s.l.m.
22 °C
Nuvoloso
Temp. 24 Ore
15 °C
26 °C
Nord/NOvest
9.3 Km/h
Dew point 16 °C
Umidità 68 %
Visibilità 14 Km
Il sole sorge alle ore 06:32
Il sole tramonta alle ore 19:06
| Data e Ora | Cielo e Fenomeni | T °C | DP °C | Um. % | Pres. hPa | Vis. km | Vento km/h | |
|---|---|---|---|---|---|---|---|---|
| Oggi h: 18:40 | Nuvoloso | 22 | 16 | 68 | 1023 | 14 | N/NO 9.3 | |
| Oggi h: 17:40 | Molto Nuvoloso | 24 | 14 | 53 | 1023 | 14 | N 0 | |
| Oggi h: 16:40 | Molto Nuvoloso | 24 | 13 | 50 | 1024 | 13 | SO 9.3 | |
| Oggi h: 15:40 | Nuvoloso | 26 | 14 | 47 | 1024 | 13 | S 11.1 | |
| Oggi h: 14:44 | Nuvoloso | 26 | 15 | 50 | 1025 | 10 | N 0 | |
| Oggi h: 13:43 | Molto Nuvoloso | 24 | 15 | 57 | 1026 | 10 | O/NO 14.8 | |
| Oggi h: 12:44 | Molto Nuvoloso | 23 | 15 | 60 | 1027 | 10 | SO 7.4 | |
| Oggi h: 11:46 | Molto Nuvoloso | 22 | 15 | 64 | 1027 | 14 | O 7.4 | |
| Oggi h: 10:44 | Molto Nuvoloso | 21 | 15 | 68 | 1028 | 13 | E 7.4 | |
| Oggi h: 09:52 | Molto Nuvoloso | 18 | 14 | 77 | 1028 | 10 | N 3.7 | |
| Oggi h: 08:40 | Coperto | 16 | 15 | 93 | 1028 | 6 | N/NO 11.1 | |
| Oggi h: 07:45 | Pioviggine | 15 | 15 | 100 | 1028 | 5 | N/NO 7.4 | |
| Oggi h: 06:40 | Pioggia | 15 | 15 | 100 | 1027 | 5 | NE 7.4 | |
| Oggi h: 05:41 | Coperto | 15 | 14 | 93 | 1027 | 8 | N/NE 9.3 | |
| Oggi h: 05:05 | Pioggia | 15 | 14 | 93 | 1027 | 8 | N 14.8 | |
| Ieri h: 23:40 | Pioggia | 15 | 14 | 93 | 1027 | 13 | E 9.3 | |
| Ieri h: 22:42 | Pioviggine | 17 | 14 | 82 | 1027 | 13 | O/NO 14.8 | |
| Ieri h: 22:17 | Temporale | 18 | 13 | 72 | 1027 | 13 | E/NE 13 | |
| Ieri h: 22:06 | Temporale | 18 | 13 | 72 | 1026 | 13 | E/SE 9.3 | |
| Ieri h: 21:44 | Molto Nuvoloso | 19 | 11 | 59 | 1025 | 13 | E 27.8 | |
| Ieri h: 20:40 | Molto Nuvoloso | 22 | 13 | 56 | 1024 | 13 | E 24 | |
| Ieri h: 19:40 | Molto Nuvoloso | 21 | 14 | 64 | 1023 | 13 | S/SE 9.3 | |



